createdAt,value
2022-12-04T00:01:12.007Z,53.40
2022-12-04T00:03:38.919Z,49.80
2022-12-04T00:06:17.278Z,54.30
2022-12-04T00:08:44.331Z,47.90
2022-12-04T00:11:12.406Z,47.90
2022-12-04T00:13:39.603Z,52.60
2022-12-04T00:16:12.675Z,55.20
2022-12-04T00:18:39.348Z,50.30
2022-12-04T00:21:07.701Z,48.50
2022-12-04T00:23:35.870Z,51.30
2022-12-04T00:26:24.964Z,55.90
2022-12-04T00:28:51.772Z,50.10
2022-12-04T00:31:21.104Z,51.00
2022-12-04T00:33:47.684Z,48.00
2022-12-04T00:36:16.821Z,52.50
2022-12-04T00:38:43.938Z,49.00
2022-12-04T00:41:11.898Z,46.70
2022-12-04T00:43:38.020Z,45.70
2022-12-04T00:46:04.356Z,49.50
2022-12-04T00:48:30.577Z,51.70
2022-12-04T00:51:03.416Z,54.00
2022-12-04T00:53:29.694Z,53.10
2022-12-04T00:55:56.233Z,51.40
2022-12-04T00:58:22.348Z,54.60
2022-12-04T01:00:48.383Z,51.20
2022-12-04T01:03:14.814Z,48.90
2022-12-04T01:05:44.116Z,44.20
2022-12-04T01:08:11.817Z,46.90
2022-12-04T01:10:39.593Z,47.40
2022-12-04T01:13:05.809Z,47.50
2022-12-04T01:15:32.192Z,49.70
2022-12-04T01:17:58.321Z,42.20
2022-12-04T01:20:24.494Z,45.30
2022-12-04T01:22:50.486Z,43.10
2022-12-04T01:25:16.538Z,45.30
2022-12-04T01:27:42.531Z,46.50
2022-12-04T01:30:08.885Z,46.60
2022-12-04T01:32:34.816Z,49.50
2022-12-04T01:35:00.801Z,45.90
2022-12-04T01:37:30.099Z,50.30
2022-12-04T01:39:56.448Z,45.20
2022-12-04T01:42:22.901Z,40.80
2022-12-04T01:45:26.335Z,43.90
2022-12-04T01:48:01.717Z,45.30
2022-12-04T01:50:28.803Z,46.20
2022-12-04T01:52:55.102Z,40.50
2022-12-04T01:55:21.186Z,41.80
2022-12-04T01:57:47.516Z,44.90
2022-12-04T02:00:15.421Z,39.30
2022-12-04T02:02:44.766Z,44.00
2022-12-04T02:05:14.570Z,41.90
2022-12-04T02:07:42.756Z,45.30
2022-12-04T02:10:10.986Z,41.50
2022-12-04T02:12:50.723Z,43.00
2022-12-04T02:15:33.884Z,44.40
2022-12-04T02:18:06.016Z,47.00
2022-12-04T02:20:56.861Z,45.90
2022-12-04T02:23:40.448Z,50.20
2022-12-04T02:26:32.759Z,42.10
2022-12-04T02:29:20.327Z,42.70
2022-12-04T02:32:01.711Z,42.00
2022-12-04T02:34:58.136Z,46.30
2022-12-04T02:37:32.495Z,44.80
2022-12-04T02:40:08.889Z,39.20
2022-12-04T02:42:40.479Z,42.00
2022-12-04T02:45:11.431Z,36.30
2022-12-04T02:47:41.604Z,38.20
2022-12-04T02:50:15.309Z,42.60
2022-12-04T02:52:52.606Z,38.40
2022-12-04T02:55:31.838Z,37.80
2022-12-04T02:58:05.120Z,41.00
2022-12-04T03:00:32.418Z,36.20
2022-12-04T03:03:08.361Z,39.80
2022-12-04T03:05:46.031Z,41.90
2022-12-04T03:08:19.640Z,41.40
2022-12-04T03:10:50.423Z,40.10
2022-12-04T03:13:23.533Z,36.60
2022-12-04T03:16:01.399Z,41.20
2022-12-04T03:18:41.398Z,34.20
2022-12-04T03:21:16.239Z,38.20
2022-12-04T03:23:48.244Z,39.50
2022-12-04T03:26:23.266Z,35.30
2022-12-04T03:29:14.784Z,37.50
2022-12-04T03:31:49.363Z,40.00
2022-12-04T03:34:26.175Z,37.20
2022-12-04T03:36:58.251Z,41.00
2022-12-04T03:40:04.348Z,37.80
2022-12-04T03:42:46.071Z,40.40
2022-12-04T03:45:45.338Z,39.70
2022-12-04T03:48:23.131Z,42.00
2022-12-04T03:51:01.727Z,38.30
2022-12-04T03:53:37.623Z,39.90
2022-12-04T03:56:13.173Z,38.20
2022-12-04T03:58:45.651Z,39.60
2022-12-04T04:01:14.513Z,41.90
2022-12-04T04:03:48.614Z,34.80
2022-12-04T04:06:23.489Z,39.90
2022-12-04T04:08:55.092Z,39.40
2022-12-04T04:11:33.208Z,33.80
2022-12-04T04:14:25.495Z,34.00
2022-12-04T04:17:16.991Z,37.00
2022-12-04T04:20:05.767Z,40.30
2022-12-04T04:22:55.983Z,35.70
2022-12-04T04:25:25.133Z,35.70
2022-12-04T04:27:55.892Z,34.40
2022-12-04T04:30:22.520Z,36.20
2022-12-04T04:32:58.018Z,34.10
2022-12-04T04:35:41.323Z,38.70
2022-12-04T04:38:26.123Z,35.30
2022-12-04T04:41:01.205Z,36.80
2022-12-04T04:43:43.550Z,40.10
2022-12-04T04:46:24.561Z,40.10
2022-12-04T04:48:53.893Z,45.10
2022-12-04T04:51:20.383Z,41.30
2022-12-04T04:53:50.045Z,40.90
2022-12-04T04:56:16.653Z,41.40
2022-12-04T04:58:43.032Z,42.80
2022-12-04T05:01:13.466Z,43.90
2022-12-04T05:03:41.201Z,45.90
2022-12-04T05:06:07.519Z,45.60
2022-12-04T05:08:34.545Z,42.00
2022-12-04T05:11:00.625Z,34.20
2022-12-04T05:13:28.280Z,42.10
2022-12-04T05:15:58.727Z,39.40
2022-12-04T05:18:24.911Z,42.00
2022-12-04T05:20:50.926Z,40.20
2022-12-04T05:23:17.009Z,38.60
2022-12-04T05:25:42.991Z,37.90
2022-12-04T05:28:08.951Z,35.70
2022-12-04T05:30:34.971Z,38.90
2022-12-04T05:33:01.000Z,37.10
2022-12-04T05:35:27.022Z,34.90
2022-12-04T05:37:53.051Z,32.50
2022-12-04T05:40:19.173Z,34.80
2022-12-04T05:42:45.146Z,34.50
2022-12-04T05:45:11.515Z,32.80
2022-12-04T05:47:42.244Z,33.80
2022-12-04T05:50:10.229Z,34.00
2022-12-04T05:52:36.311Z,32.70
2022-12-04T05:55:02.379Z,32.90
2022-12-04T05:57:30.026Z,33.90
2022-12-04T05:59:56.358Z,32.30
2022-12-04T06:02:22.755Z,32.70
2022-12-04T06:04:49.015Z,28.80
2022-12-04T06:07:14.991Z,30.60
2022-12-04T06:09:40.919Z,30.60
2022-12-04T06:12:07.099Z,35.40
2022-12-04T06:14:39.147Z,30.80
2022-12-04T06:17:05.603Z,33.90
2022-12-04T06:19:31.711Z,34.50
2022-12-04T06:21:57.694Z,34.90
2022-12-04T06:24:24.649Z,31.20
2022-12-04T06:29:42.203Z,29.60
2022-12-04T06:32:08.309Z,32.60
2022-12-04T06:34:35.111Z,38.80
2022-12-04T06:37:01.107Z,34.80
2022-12-04T06:39:27.099Z,36.30
2022-12-04T06:41:53.288Z,33.60
2022-12-04T06:44:19.315Z,32.60
2022-12-04T06:46:47.359Z,33.80
2022-12-04T06:49:14.054Z,35.60
2022-12-04T06:51:40.255Z,39.00
2022-12-04T06:54:06.248Z,33.90
2022-12-04T06:56:33.365Z,33.50
2022-12-04T06:59:01.231Z,35.50
2022-12-04T07:01:30.674Z,37.00
2022-12-04T07:03:57.904Z,37.20
2022-12-04T07:06:29.630Z,34.60
2022-12-04T07:09:09.500Z,35.80
2022-12-04T07:11:35.909Z,32.70
2022-12-04T07:14:02.669Z,33.30
2022-12-04T07:16:29.993Z,33.80
2022-12-04T07:18:57.902Z,31.20
2022-12-04T07:21:29.159Z,31.00
2022-12-04T07:23:58.347Z,30.40
2022-12-04T07:26:25.975Z,32.70
2022-12-04T07:28:53.589Z,29.40
2022-12-04T07:31:21.960Z,34.10
2022-12-04T07:33:48.697Z,31.50
2022-12-04T07:36:17.168Z,29.20
2022-12-04T07:38:43.478Z,29.20
2022-12-04T07:41:11.676Z,30.60
2022-12-04T07:43:38.720Z,29.00
2022-12-04T07:46:08.500Z,29.30
2022-12-04T07:48:34.796Z,30.30
2022-12-04T07:51:08.310Z,30.30
2022-12-04T07:53:35.513Z,31.70
2022-12-04T07:56:02.800Z,29.70
2022-12-04T07:58:28.796Z,31.30
2022-12-04T08:00:54.931Z,32.20
2022-12-04T08:03:20.988Z,29.40
2022-12-04T08:05:47.046Z,31.00
2022-12-04T08:08:13.073Z,31.60
2022-12-04T08:10:40.405Z,30.30
2022-12-04T08:13:06.589Z,30.80
2022-12-04T08:15:34.248Z,29.60
2022-12-04T08:18:00.368Z,27.00
2022-12-04T08:20:26.690Z,25.70
2022-12-04T08:22:52.666Z,28.20
2022-12-04T08:25:18.648Z,26.50
2022-12-04T08:27:47.628Z,30.20
2022-12-04T08:30:13.889Z,22.60
2022-12-04T08:32:39.860Z,26.30
2022-12-04T08:35:06.039Z,31.90
2022-12-04T08:37:32.052Z,28.10
2022-12-04T08:39:58.450Z,27.10
2022-12-04T08:42:24.609Z,30.20
2022-12-04T08:44:50.626Z,29.80
2022-12-04T08:47:16.653Z,26.70
2022-12-04T08:49:42.707Z,31.20
2022-12-04T08:52:08.652Z,26.70
2022-12-04T08:54:36.325Z,26.40
2022-12-04T08:57:03.183Z,28.20
2022-12-04T08:59:29.281Z,28.00
2022-12-04T09:01:55.329Z,27.40
2022-12-04T09:04:21.500Z,26.40
2022-12-04T09:06:47.623Z,28.90
2022-12-04T09:09:13.570Z,26.50
2022-12-04T09:11:39.560Z,29.80
2022-12-04T09:14:05.578Z,25.00
2022-12-04T09:16:31.721Z,25.70
2022-12-04T09:18:57.861Z,26.70
2022-12-04T09:21:24.712Z,26.00
2022-12-04T09:23:51.160Z,25.80
2022-12-04T09:26:29.882Z,25.90
2022-12-04T09:28:57.539Z,24.90
2022-12-04T09:31:24.432Z,25.00
2022-12-04T09:33:51.360Z,27.20
2022-12-04T09:36:17.449Z,25.70
2022-12-04T09:38:46.119Z,25.30
2022-12-04T09:41:36.381Z,24.50
2022-12-04T09:44:24.604Z,25.20
2022-12-04T09:47:00.552Z,25.70
2022-12-04T09:49:56.837Z,29.40
2022-12-04T09:52:44.968Z,26.30
2022-12-04T09:55:52.737Z,24.70
2022-12-04T09:58:22.925Z,25.80
2022-12-04T10:00:51.472Z,27.60
2022-12-04T10:03:20.124Z,23.50
2022-12-04T10:06:06.537Z,26.10
2022-12-04T10:08:40.359Z,25.00
2022-12-04T10:11:16.581Z,29.40
2022-12-04T10:16:43.713Z,25.50
2022-12-04T10:19:49.456Z,22.70
2022-12-04T10:22:24.368Z,23.40
2022-12-04T10:25:02.067Z,23.00
2022-12-04T10:27:38.680Z,24.60
2022-12-04T10:30:21.795Z,24.90
2022-12-04T10:32:57.364Z,25.90
2022-12-04T10:35:26.735Z,24.80
2022-12-04T10:38:22.422Z,23.00
2022-12-04T10:40:55.616Z,22.30
2022-12-04T10:43:40.678Z,24.80
2022-12-04T10:46:20.664Z,22.90
2022-12-04T10:48:50.589Z,23.90
2022-12-04T10:51:19.207Z,24.00
2022-12-04T10:53:45.920Z,24.80
2022-12-04T10:56:14.154Z,24.80
2022-12-04T10:58:41.074Z,23.90
2022-12-04T11:01:12.040Z,21.50
2022-12-04T11:03:44.825Z,22.70
2022-12-04T11:06:14.273Z,25.30
2022-12-04T11:08:49.276Z,24.90
2022-12-04T11:11:23.173Z,26.00
2022-12-04T11:14:02.661Z,24.00
2022-12-04T11:16:37.393Z,22.80
2022-12-04T11:19:18.300Z,26.00
2022-12-04T11:21:44.669Z,23.80
2022-12-04T11:24:28.876Z,24.20
2022-12-04T11:26:57.164Z,24.60
2022-12-04T11:29:31.878Z,28.00
2022-12-04T11:32:02.816Z,22.70
2022-12-04T11:34:40.753Z,22.50
2022-12-04T11:37:20.272Z,26.50
2022-12-04T11:39:47.060Z,24.60
2022-12-04T11:42:13.077Z,23.90
2022-12-04T11:44:48.672Z,23.80
2022-12-04T11:47:19.123Z,27.40
2022-12-04T11:49:57.339Z,24.80
2022-12-04T11:52:54.864Z,23.50
2022-12-04T11:56:02.279Z,24.40
2022-12-04T11:58:31.057Z,26.00
2022-12-04T12:01:07.427Z,23.70
2022-12-04T12:03:44.465Z,27.50
2022-12-04T12:06:25.893Z,27.90
2022-12-04T12:09:13.324Z,27.00
2022-12-04T12:11:55.091Z,21.50
2022-12-04T12:14:21.090Z,21.50
2022-12-04T12:17:09.381Z,20.40
2022-12-04T12:19:39.603Z,25.50
2022-12-04T12:22:10.586Z,24.10
2022-12-04T12:25:13.021Z,25.50
2022-12-04T12:27:54.512Z,29.50
2022-12-04T12:30:22.995Z,26.80
2022-12-04T12:33:08.706Z,23.30
2022-12-04T12:35:43.907Z,20.60
2022-12-04T12:38:19.253Z,20.50
2022-12-04T12:41:27.405Z,22.00
2022-12-04T12:44:02.236Z,24.00
2022-12-04T12:46:40.100Z,23.90
2022-12-04T12:49:06.016Z,23.90
2022-12-04T12:51:56.460Z,23.10
2022-12-04T12:56:20.817Z,23.10
2022-12-04T12:58:54.360Z,23.20
2022-12-04T13:01:20.499Z,23.70
2022-12-04T13:04:11.147Z,20.80
2022-12-04T13:13:07.100Z,26.20
2022-12-04T13:15:43.734Z,24.90
2022-12-04T13:18:23.628Z,20.60
2022-12-04T13:21:02.662Z,22.90
2022-12-04T13:23:59.498Z,23.80
2022-12-04T13:26:31.928Z,26.90
2022-12-04T13:29:40.463Z,24.20
2022-12-04T13:32:37.517Z,28.00
2022-12-04T13:35:23.063Z,22.10
2022-12-04T13:38:16.750Z,24.10
2022-12-04T13:40:48.149Z,27.50
2022-12-04T13:43:37.421Z,23.70
2022-12-04T13:46:07.917Z,22.70
2022-12-04T13:48:40.658Z,28.20
2022-12-04T13:51:39.019Z,30.00
2022-12-04T13:54:11.822Z,26.00
2022-12-04T13:56:40.882Z,22.70
2022-12-04T13:59:32.203Z,24.20
2022-12-04T14:02:23.831Z,22.70
2022-12-04T14:04:58.209Z,24.90
2022-12-04T14:21:06.072Z,21.40
2022-12-04T14:23:42.781Z,21.80
2022-12-04T14:27:09.964Z,21.80
2022-12-04T14:29:53.118Z,20.50
2022-12-04T14:32:27.010Z,20.50
2022-12-04T14:34:55.251Z,20.00
2022-12-04T14:37:31.030Z,19.60
2022-12-04T14:40:00.028Z,21.50
2022-12-04T14:42:38.432Z,18.30
2022-12-04T14:45:20.643Z,19.10
2022-12-04T14:48:26.048Z,19.30
2022-12-04T14:51:21.728Z,22.00
2022-12-04T14:53:51.300Z,17.80
2022-12-04T14:56:57.214Z,21.00
2022-12-04T14:59:29.896Z,20.50
2022-12-04T15:01:56.782Z,19.80
2022-12-04T15:04:29.500Z,20.90
2022-12-04T15:07:00.369Z,20.80
2022-12-04T15:09:47.084Z,20.60
2022-12-04T15:12:34.936Z,19.40
2022-12-04T15:15:25.474Z,17.90
2022-12-04T15:18:13.820Z,20.40
2022-12-04T15:20:49.326Z,19.80
2022-12-04T15:23:27.178Z,21.00
2022-12-04T15:25:57.147Z,22.40
2022-12-04T15:28:49.017Z,23.00
2022-12-04T15:31:30.631Z,19.80
2022-12-04T15:34:02.753Z,20.00
2022-12-04T15:36:46.658Z,20.40
2022-12-04T15:39:19.321Z,21.70
2022-12-04T15:41:46.133Z,22.40
2022-12-04T15:44:24.248Z,21.40
2022-12-04T15:46:54.127Z,21.20
2022-12-04T15:49:26.539Z,19.70
2022-12-04T15:52:05.215Z,21.50
2022-12-04T15:54:32.068Z,20.60
2022-12-04T15:57:04.390Z,17.70
2022-12-04T15:59:32.946Z,18.50
2022-12-04T16:02:21.255Z,22.80
2022-12-04T16:04:47.936Z,21.20
2022-12-04T16:07:27.387Z,21.20
2022-12-04T16:10:04.123Z,19.30
2022-12-04T16:12:32.353Z,17.60
2022-12-04T16:14:59.728Z,21.80
2022-12-04T16:17:36.651Z,19.40
2022-12-04T16:20:05.697Z,21.20
2022-12-04T16:22:32.442Z,21.00
2022-12-04T16:24:59.689Z,20.70
2022-12-04T16:27:26.805Z,19.70
2022-12-04T16:29:53.491Z,18.60
2022-12-04T16:32:25.056Z,17.90
2022-12-04T16:34:51.968Z,18.60
2022-12-04T16:37:21.644Z,19.80
2022-12-04T16:39:48.662Z,18.30
2022-12-04T16:42:17.430Z,18.60
2022-12-04T16:44:44.491Z,21.70
2022-12-04T16:47:12.367Z,22.30
2022-12-04T16:49:39.908Z,20.60
2022-12-04T16:52:08.147Z,17.30
2022-12-04T16:54:35.066Z,20.90
2022-12-04T16:57:01.739Z,18.50
2022-12-04T16:59:28.509Z,21.50
2022-12-04T17:01:55.339Z,21.80
2022-12-04T17:04:22.222Z,20.40
2022-12-04T17:06:48.969Z,19.20
2022-12-04T17:09:16.540Z,20.40
2022-12-04T17:11:44.179Z,18.40
2022-12-04T17:14:11.787Z,17.30
2022-12-04T17:16:45.100Z,19.70
2022-12-04T17:19:12.589Z,16.00
2022-12-04T17:21:40.467Z,17.60
2022-12-04T17:24:07.844Z,18.30
2022-12-04T17:26:34.650Z,18.30
2022-12-04T17:29:01.412Z,16.80
2022-12-04T17:31:28.176Z,17.20
2022-12-04T17:33:57.248Z,17.00
2022-12-04T17:36:26.189Z,18.90
2022-12-04T17:38:57.874Z,20.40
2022-12-04T17:41:26.101Z,18.00
2022-12-04T17:43:52.852Z,18.90
2022-12-04T17:46:24.441Z,17.30
2022-12-04T17:48:51.728Z,20.50
2022-12-04T17:51:21.486Z,19.50
2022-12-04T17:53:48.763Z,18.40
2022-12-04T17:56:21.758Z,16.30
2022-12-04T17:58:50.363Z,16.90
2022-12-04T18:01:21.712Z,18.70
2022-12-04T18:03:53.555Z,19.60
2022-12-04T18:06:24.525Z,16.40
2022-12-04T18:08:52.267Z,16.10
2022-12-04T18:11:23.402Z,16.60
2022-12-04T18:13:57.984Z,13.60
2022-12-04T18:16:26.041Z,14.30
2022-12-04T18:18:54.785Z,14.70
2022-12-04T18:21:21.898Z,17.10
2022-12-04T18:23:48.967Z,17.50
2022-12-04T18:26:21.599Z,17.00
2022-12-04T18:28:49.437Z,16.30
2022-12-04T18:31:18.993Z,14.90
2022-12-04T18:33:46.567Z,14.90
2022-12-04T18:36:23.470Z,17.10
2022-12-04T18:38:58.858Z,16.20
2022-12-04T18:41:26.609Z,17.10
2022-12-04T18:43:53.869Z,17.70
2022-12-04T18:46:21.004Z,15.20
2022-12-04T18:48:49.116Z,16.70
2022-12-04T18:51:21.888Z,14.10
2022-12-04T18:53:49.366Z,14.90
2022-12-04T18:56:16.510Z,17.40
2022-12-04T18:58:44.645Z,15.00
2022-12-04T19:01:13.987Z,16.10
2022-12-04T19:03:41.895Z,19.10
2022-12-04T19:06:08.770Z,15.80
2022-12-04T19:08:39.995Z,14.10
2022-12-04T19:11:15.150Z,17.30
2022-12-04T19:13:42.972Z,16.00
2022-12-04T19:16:14.531Z,17.00
2022-12-04T19:18:42.438Z,16.60
2022-12-04T19:21:09.163Z,16.80
2022-12-04T19:23:35.786Z,14.70
2022-12-04T19:26:02.455Z,13.20
2022-12-04T19:28:29.983Z,16.20
2022-12-04T19:30:56.779Z,15.30
2022-12-04T19:33:24.906Z,16.70
2022-12-04T19:35:58.451Z,15.30
2022-12-04T19:38:25.957Z,20.90
2022-12-04T19:41:22.921Z,17.60
2022-12-04T19:43:51.781Z,16.40
2022-12-04T19:46:21.531Z,16.50
2022-12-04T19:48:50.140Z,17.70
2022-12-04T19:51:20.004Z,19.60
2022-12-04T19:53:48.012Z,15.80
2022-12-04T19:56:18.722Z,20.30
2022-12-04T19:58:46.581Z,16.20
2022-12-04T20:01:19.292Z,19.40
2022-12-04T20:03:46.525Z,18.30
2022-12-04T20:06:16.142Z,14.80
2022-12-04T20:08:43.080Z,17.60
2022-12-04T20:11:12.757Z,18.40
2022-12-04T20:13:40.144Z,16.20
2022-12-04T20:16:09.469Z,19.60
2022-12-04T20:18:37.863Z,18.70
2022-12-04T20:21:10.977Z,18.80
2022-12-04T20:23:39.058Z,17.30
2022-12-04T20:26:07.871Z,14.60
2022-12-04T20:28:34.981Z,17.80
2022-12-04T20:31:10.611Z,16.80
2022-12-04T20:33:37.430Z,17.60
2022-12-04T20:36:05.417Z,19.90
2022-12-04T20:38:32.053Z,17.30
2022-12-04T20:41:03.138Z,17.30
2022-12-04T20:43:29.980Z,18.30
2022-12-04T20:45:56.897Z,17.40
2022-12-04T20:48:23.629Z,16.80
2022-12-04T20:50:50.443Z,17.30
2022-12-04T20:53:17.324Z,18.00
2022-12-04T20:55:53.577Z,15.70
2022-12-04T21:03:13.418Z,19.10
2022-12-04T21:05:40.288Z,19.40
2022-12-04T21:08:08.491Z,18.00
2022-12-04T21:10:35.150Z,16.30
2022-12-04T21:13:20.607Z,18.10
2022-12-04T21:16:03.518Z,16.50
2022-12-04T21:18:30.341Z,19.10
2022-12-04T21:20:57.044Z,20.30
2022-12-04T21:23:23.862Z,19.40
2022-12-04T21:25:50.565Z,17.00
2022-12-04T21:28:17.202Z,16.80
2022-12-04T21:30:43.956Z,16.10
2022-12-04T21:33:10.978Z,19.40
2022-12-04T21:35:40.047Z,17.10
2022-12-04T21:38:06.729Z,20.40
2022-12-04T21:40:39.004Z,16.80
2022-12-04T21:43:09.048Z,16.90
2022-12-04T21:45:35.680Z,17.40
2022-12-04T21:48:02.340Z,14.00
2022-12-04T21:50:28.945Z,14.70
2022-12-04T21:52:55.687Z,13.50
2022-12-04T21:55:22.337Z,15.80
2022-12-04T21:57:49.146Z,14.50
2022-12-04T22:00:16.051Z,14.30
2022-12-04T22:02:42.806Z,16.30
2022-12-04T22:05:09.539Z,18.50
2022-12-04T22:07:36.275Z,15.20
2022-12-04T22:10:08.653Z,14.30
2022-12-04T22:12:52.615Z,12.30
2022-12-04T22:15:19.565Z,16.40
2022-12-04T22:17:46.329Z,14.40
2022-12-04T22:20:13.303Z,13.80
2022-12-04T22:22:40.027Z,15.00
2022-12-04T22:25:06.977Z,15.10
2022-12-04T22:27:33.670Z,15.30
2022-12-04T22:30:00.878Z,12.80
2022-12-04T22:32:27.757Z,13.90
2022-12-04T22:34:54.427Z,13.70
2022-12-04T22:37:21.084Z,13.30
2022-12-04T22:39:47.770Z,13.00
2022-12-04T22:42:14.444Z,14.00
2022-12-04T22:44:41.154Z,13.80
2022-12-04T22:47:07.885Z,13.50
2022-12-04T22:49:34.557Z,15.20
2022-12-04T22:52:01.324Z,14.20
2022-12-04T22:54:27.952Z,12.90
2022-12-04T22:56:54.705Z,14.20
2022-12-04T22:59:21.333Z,13.20
2022-12-04T23:01:47.975Z,13.90
2022-12-04T23:04:14.639Z,14.30
2022-12-04T23:06:41.354Z,14.70
2022-12-04T23:09:13.186Z,13.60
2022-12-04T23:11:40.628Z,14.50
2022-12-04T23:14:09.569Z,12.80
2022-12-04T23:16:38.397Z,12.50
2022-12-04T23:19:07.195Z,12.80
2022-12-04T23:21:34.298Z,14.70
2022-12-04T23:24:01.006Z,15.20
2022-12-04T23:26:32.545Z,15.10
2022-12-04T23:28:59.520Z,16.00
2022-12-04T23:31:26.307Z,14.20
2022-12-04T23:33:53.220Z,16.00
2022-12-04T23:36:20.165Z,14.80
2022-12-04T23:38:47.542Z,14.10
2022-12-04T23:41:26.561Z,14.80
2022-12-04T23:43:54.136Z,13.90
2022-12-04T23:46:24.269Z,14.90
2022-12-04T23:48:50.995Z,13.40
2022-12-04T23:51:19.523Z,14.80
2022-12-04T23:53:48.123Z,16.70
2022-12-04T23:56:23.506Z,16.60
2022-12-04T23:58:52.442Z,13.90
